createdAt,value
2018-09-05T00:00:57.588Z,66.90
2018-09-05T00:03:25.338Z,66.80
2018-09-05T00:05:53.161Z,67.40
2018-09-05T00:08:20.910Z,66.80
2018-09-05T00:10:48.946Z,66.60
2018-09-05T00:13:16.706Z,66.90
2018-09-05T00:15:44.539Z,66.50
2018-09-05T00:18:12.322Z,66.10
2018-09-05T00:20:40.172Z,66.10
2018-09-05T00:23:08.122Z,66.10
2018-09-05T00:25:35.966Z,66.30
2018-09-05T00:28:03.854Z,66.80
2018-09-05T00:30:31.590Z,67.20
2018-09-05T00:32:59.360Z,67.10
2018-09-05T00:35:27.150Z,66.60
2018-09-05T00:37:54.844Z,66.60
2018-09-05T00:40:22.663Z,66.10
2018-09-05T00:42:50.488Z,66.30
2018-09-05T00:45:18.242Z,66.00
2018-09-05T00:47:45.959Z,67.60
2018-09-05T00:50:13.748Z,66.90
2018-09-05T00:52:41.551Z,66.50
2018-09-05T00:55:09.364Z,66.60
2018-09-05T00:57:37.202Z,66.90
2018-09-05T01:00:05.271Z,66.80
2018-09-05T01:02:33.106Z,66.80
2018-09-05T01:05:00.910Z,66.40
2018-09-05T01:07:28.950Z,66.40
2018-09-05T01:09:56.812Z,66.80
2018-09-05T01:12:25.198Z,67.10
2018-09-05T01:14:54.020Z,67.40
2018-09-05T01:17:21.986Z,66.40
2018-09-05T01:19:49.866Z,65.90
2018-09-05T01:22:17.602Z,65.30
2018-09-05T01:24:45.572Z,65.40
2018-09-05T01:27:13.401Z,66.30
2018-09-05T01:29:42.061Z,66.50
2018-09-05T01:32:10.582Z,67.80
2018-09-05T01:34:41.082Z,66.90
2018-09-05T01:37:09.221Z,66.60
2018-09-05T01:39:36.939Z,66.30
2018-09-05T01:42:05.412Z,66.10
2018-09-05T01:44:33.262Z,65.90
2018-09-05T01:47:01.354Z,67.00
2018-09-05T01:49:29.595Z,66.40
2018-09-05T01:51:58.574Z,66.90
2018-09-05T01:54:26.558Z,67.00
2018-09-05T01:56:55.353Z,66.80
2018-09-05T01:59:23.704Z,66.80
2018-09-05T02:01:51.507Z,66.80
2018-09-05T02:04:20.362Z,66.70
2018-09-05T02:06:48.147Z,66.50
2018-09-05T02:09:15.883Z,66.80
2018-09-05T02:11:44.054Z,66.60
2018-09-05T02:14:12.293Z,66.90
2018-09-05T02:16:40.632Z,66.10
2018-09-05T02:19:08.447Z,66.50
2018-09-05T02:21:36.297Z,67.10
2018-09-05T02:24:04.273Z,67.10
2018-09-05T02:26:32.057Z,66.80
2018-09-05T02:28:59.820Z,66.80
2018-09-05T02:31:27.648Z,67.00
2018-09-05T02:33:55.498Z,67.00
2018-09-05T02:36:23.346Z,67.10
2018-09-05T02:38:51.094Z,67.00
2018-09-05T02:41:18.833Z,66.70
2018-09-05T02:43:52.041Z,66.30
2018-09-05T02:46:19.954Z,66.40
2018-09-05T02:48:47.837Z,65.80
2018-09-05T02:51:15.609Z,66.10
2018-09-05T02:53:43.448Z,66.20
2018-09-05T02:56:11.209Z,66.70
2018-09-05T02:58:39.020Z,66.30
2018-09-05T03:01:06.743Z,66.70
2018-09-05T03:03:34.491Z,66.70
2018-09-05T03:06:02.238Z,66.50
2018-09-05T03:08:30.014Z,66.60
2018-09-05T03:10:57.697Z,66.50
2018-09-05T03:13:25.459Z,67.30
2018-09-05T03:15:53.240Z,66.60
2018-09-05T03:18:20.998Z,66.80
2018-09-05T03:20:48.834Z,67.20
2018-09-05T03:23:16.561Z,67.40
2018-09-05T03:25:44.329Z,67.20
2018-09-05T03:28:12.052Z,67.40
2018-09-05T03:30:40.040Z,67.50
2018-09-05T03:33:08.034Z,67.00
2018-09-05T03:35:35.764Z,66.80
2018-09-05T03:38:03.678Z,67.00
2018-09-05T03:40:31.404Z,67.20
2018-09-05T03:42:59.211Z,67.90
2018-09-05T03:45:26.954Z,68.20
2018-09-05T03:47:54.671Z,68.30
2018-09-05T03:50:22.405Z,69.20
2018-09-05T03:52:50.167Z,67.40
2018-09-05T03:55:17.879Z,67.50
2018-09-05T03:57:45.606Z,67.50
2018-09-05T04:00:13.382Z,67.70
2018-09-05T04:02:41.087Z,68.30
2018-09-05T04:05:08.858Z,67.40
2018-09-05T04:07:36.599Z,67.40
2018-09-05T04:10:04.438Z,67.70
2018-09-05T04:12:36.743Z,67.60
2018-09-05T04:15:05.346Z,67.80
2018-09-05T04:17:33.008Z,68.10
2018-09-05T04:20:00.830Z,67.90
2018-09-05T04:22:29.396Z,67.70
2018-09-05T04:24:57.079Z,67.80
2018-09-05T04:27:25.317Z,68.10
2018-09-05T04:29:53.148Z,68.50
2018-09-05T04:32:22.101Z,68.20
2018-09-05T04:34:49.972Z,68.80
2018-09-05T04:37:17.678Z,68.10
2018-09-05T04:39:45.518Z,68.00
2018-09-05T04:42:13.388Z,67.60
2018-09-05T04:44:41.380Z,67.40
2018-09-05T04:47:09.072Z,68.70
2018-09-05T04:49:36.795Z,67.90
2018-09-05T04:52:04.559Z,67.50
2018-09-05T04:54:32.293Z,67.60
2018-09-05T04:57:00.105Z,67.50
2018-09-05T04:59:27.894Z,67.50
2018-09-05T05:01:55.637Z,67.50
2018-09-05T05:04:23.437Z,68.00
2018-09-05T05:06:51.193Z,68.00
2018-09-05T05:09:18.909Z,67.60
2018-09-05T05:11:46.676Z,67.40
2018-09-05T05:14:14.654Z,68.10
2018-09-05T05:16:42.363Z,68.40
2018-09-05T05:19:10.119Z,68.50
2018-09-05T05:21:38.055Z,68.20
2018-09-05T05:24:05.830Z,68.30
2018-09-05T05:26:33.536Z,67.90
2018-09-05T05:29:01.320Z,67.60
2018-09-05T05:31:29.054Z,67.70
2018-09-05T05:33:56.835Z,68.10
2018-09-05T05:36:24.587Z,68.30
2018-09-05T05:38:52.424Z,68.20
2018-09-05T05:41:20.176Z,68.20
2018-09-05T05:43:48.158Z,68.80
2018-09-05T05:46:15.912Z,69.60
2018-09-05T05:48:43.613Z,70.00
2018-09-05T05:51:11.354Z,70.60
2018-09-05T05:53:39.168Z,70.80
2018-09-05T05:56:06.940Z,70.60
2018-09-05T05:58:34.690Z,71.50
2018-09-05T06:01:02.506Z,71.10
2018-09-05T06:03:30.219Z,71.00
2018-09-05T06:05:58.254Z,71.40
2018-09-05T06:08:25.963Z,72.30
2018-09-05T06:10:53.677Z,72.30
2018-09-05T06:13:21.416Z,73.00
2018-09-05T06:15:49.319Z,72.30
2018-09-05T06:18:17.079Z,71.90
2018-09-05T06:20:44.904Z,72.10
2018-09-05T06:23:12.718Z,72.40
2018-09-05T06:25:40.487Z,72.40
2018-09-05T06:28:08.264Z,72.50
2018-09-05T06:30:36.168Z,72.90
2018-09-05T06:33:03.802Z,73.00
2018-09-05T06:35:31.684Z,73.20
2018-09-05T06:37:59.635Z,74.60
2018-09-05T06:40:27.424Z,74.90
2018-09-05T06:42:55.175Z,74.90
2018-09-05T06:45:22.985Z,75.30
2018-09-05T06:47:50.814Z,75.40
2018-09-05T06:50:18.632Z,76.30
2018-09-05T06:52:46.439Z,76.20
2018-09-05T06:55:14.204Z,76.80
2018-09-05T06:57:41.987Z,77.50
2018-09-05T07:00:10.517Z,77.50
2018-09-05T07:02:38.367Z,77.80
2018-09-05T07:05:06.233Z,77.70
2018-09-05T07:07:34.098Z,78.30
2018-09-05T07:10:02.129Z,78.50
2018-09-05T07:12:29.830Z,78.30
2018-09-05T07:14:57.602Z,78.60
2018-09-05T07:17:25.428Z,78.40
2018-09-05T07:19:53.107Z,78.50
2018-09-05T07:22:20.841Z,78.80
2018-09-05T07:24:48.655Z,79.00
2018-09-05T07:27:16.375Z,79.20
2018-09-05T07:29:44.149Z,78.90
2018-09-05T07:32:12.059Z,79.10
2018-09-05T07:34:39.808Z,79.50
2018-09-05T07:37:07.897Z,79.40
2018-09-05T07:39:35.627Z,79.00
2018-09-05T07:42:03.426Z,78.90
2018-09-05T07:44:31.246Z,79.00
2018-09-05T07:46:59.110Z,79.10
2018-09-05T07:49:26.893Z,78.90
2018-09-05T07:51:54.729Z,79.10
2018-09-05T07:54:22.611Z,79.60
2018-09-05T07:56:50.428Z,78.70
2018-09-05T07:59:18.329Z,78.60
2018-09-05T08:01:46.124Z,78.20
2018-09-05T08:04:14.087Z,78.30
2018-09-05T08:06:41.834Z,77.50
2018-09-05T08:09:10.946Z,77.00
2018-09-05T08:11:38.657Z,76.90
2018-09-05T08:14:06.817Z,76.60
2018-09-05T08:16:34.724Z,76.80
2018-09-05T08:19:02.781Z,76.90
2018-09-05T08:21:30.494Z,75.50
2018-09-05T08:23:58.395Z,75.60
2018-09-05T08:26:26.198Z,74.90
2018-09-05T08:28:53.967Z,74.00
2018-09-05T08:31:27.438Z,74.00
2018-09-05T08:33:55.252Z,73.50
2018-09-05T08:36:23.300Z,72.60
2018-09-05T08:38:51.118Z,71.90
2018-09-05T08:41:18.814Z,71.00
2018-09-05T08:43:46.944Z,71.20
2018-09-05T08:46:14.603Z,70.00
2018-09-05T08:48:42.492Z,68.80
2018-09-05T08:51:10.177Z,68.70
2018-09-05T08:53:37.901Z,68.40
2018-09-05T08:56:05.807Z,67.40
2018-09-05T08:58:33.621Z,67.20
2018-09-05T09:01:01.420Z,66.60
2018-09-05T09:03:29.281Z,66.60
2018-09-05T09:05:56.974Z,65.30
2018-09-05T09:08:24.805Z,65.00
2018-09-05T09:10:52.515Z,65.00
2018-09-05T09:13:20.221Z,64.10
2018-09-05T09:15:49.471Z,64.50
2018-09-05T09:18:18.437Z,63.20
2018-09-05T09:20:46.297Z,63.80
2018-09-05T09:23:14.070Z,63.60
2018-09-05T09:25:41.891Z,63.70
2018-09-05T09:28:09.792Z,64.20
2018-09-05T09:30:37.585Z,63.40
2018-09-05T09:33:05.325Z,63.10
2018-09-05T09:35:33.101Z,63.60
2018-09-05T09:38:00.947Z,62.20
2018-09-05T09:40:28.657Z,60.70
2018-09-05T09:42:56.754Z,60.50
2018-09-05T09:45:24.457Z,60.20
2018-09-05T09:47:52.412Z,59.80
2018-09-05T09:50:20.147Z,59.50
2018-09-05T09:52:47.926Z,59.30
2018-09-05T09:55:15.695Z,58.50
2018-09-05T09:57:43.456Z,58.50
2018-09-05T10:00:11.483Z,58.10
2018-09-05T10:02:44.823Z,57.60
2018-09-05T10:05:18.170Z,57.70
2018-09-05T10:07:51.631Z,56.70
2018-09-05T10:10:25.206Z,56.30
2018-09-05T10:12:57.337Z,55.90
2018-09-05T10:15:30.664Z,56.00
2018-09-05T10:18:04.174Z,56.30
2018-09-05T10:20:31.936Z,55.80
2018-09-05T10:22:59.685Z,54.70
2018-09-05T10:25:27.465Z,55.00
2018-09-05T10:27:55.176Z,54.80
2018-09-05T10:30:22.933Z,53.50
2018-09-05T10:32:50.705Z,54.00
2018-09-05T10:35:18.435Z,54.10
2018-09-05T10:37:46.287Z,53.20
2018-09-05T10:40:14.030Z,53.20
2018-09-05T10:42:41.854Z,52.70
2018-09-05T10:45:09.572Z,52.70
2018-09-05T10:47:37.319Z,52.80
2018-09-05T10:50:05.279Z,51.40
2018-09-05T10:52:33.052Z,51.70
2018-09-05T10:55:00.843Z,52.00
2018-09-05T10:57:28.605Z,51.40
2018-09-05T10:59:56.291Z,51.00
2018-09-05T11:02:24.090Z,50.70
2018-09-05T11:04:51.852Z,49.90
2018-09-05T11:07:19.636Z,50.30
2018-09-05T11:09:47.513Z,49.80
2018-09-05T11:12:15.197Z,50.10
2018-09-05T11:14:42.901Z,49.40
2018-09-05T11:17:10.843Z,49.00
2018-09-05T11:19:38.590Z,48.60
2018-09-05T11:22:06.373Z,49.50
2018-09-05T11:24:34.329Z,48.70
2018-09-05T11:27:02.108Z,48.90
2018-09-05T11:29:29.782Z,48.70
2018-09-05T11:31:57.539Z,48.50
2018-09-05T11:34:25.326Z,49.30
2018-09-05T11:36:53.109Z,48.40
2018-09-05T11:39:21.025Z,47.80
2018-09-05T11:41:48.894Z,47.30
2018-09-05T11:44:16.629Z,46.50
2018-09-05T11:46:44.350Z,46.90
2018-09-05T11:49:12.126Z,46.10
2018-09-05T11:51:39.911Z,46.10
2018-09-05T11:54:08.603Z,45.70
2018-09-05T11:56:36.364Z,45.80
2018-09-05T11:59:04.081Z,45.20
2018-09-05T12:01:31.914Z,44.90
2018-09-05T12:03:59.642Z,44.80
2018-09-05T12:06:27.397Z,44.20
2018-09-05T12:08:55.312Z,45.20
2018-09-05T12:11:23.129Z,45.70
2018-09-05T12:13:50.920Z,44.70
2018-09-05T12:16:18.755Z,44.20
2018-09-05T12:18:46.570Z,44.40
2018-09-05T12:21:14.333Z,44.40
2018-09-05T12:23:42.095Z,44.90
2018-09-05T12:26:09.855Z,44.80
2018-09-05T12:28:38.013Z,44.70
2018-09-05T12:31:05.910Z,44.60
2018-09-05T12:33:33.724Z,44.50
2018-09-05T12:36:01.477Z,44.90
2018-09-05T12:38:29.244Z,44.40
2018-09-05T12:40:57.000Z,43.60
2018-09-05T12:43:24.762Z,44.10
2018-09-05T12:45:52.561Z,43.90
2018-09-05T12:48:20.319Z,44.50
2018-09-05T12:50:48.289Z,43.70
2018-09-05T12:53:16.086Z,44.00
2018-09-05T12:55:43.849Z,43.70
2018-09-05T12:58:11.520Z,44.00
2018-09-05T13:00:39.477Z,43.60
2018-09-05T13:03:07.265Z,43.70
2018-09-05T13:05:35.184Z,43.40
2018-09-05T13:08:02.949Z,43.60
2018-09-05T13:10:31.061Z,44.90
2018-09-05T13:12:58.825Z,43.90
2018-09-05T13:15:26.662Z,44.40
2018-09-05T13:17:54.410Z,44.00
2018-09-05T13:20:22.186Z,44.00
2018-09-05T13:22:50.499Z,44.30
2018-09-05T13:25:18.180Z,44.20
2018-09-05T13:27:45.929Z,43.80
2018-09-05T13:30:13.641Z,44.00
2018-09-05T13:32:41.502Z,44.30
2018-09-05T13:35:10.076Z,44.40
2018-09-05T13:37:37.773Z,44.30
2018-09-05T13:40:05.559Z,44.80
2018-09-05T13:42:33.507Z,44.30
2018-09-05T13:45:01.657Z,43.90
2018-09-05T13:47:29.486Z,44.60
2018-09-05T13:49:57.341Z,44.50
2018-09-05T13:52:25.106Z,44.20
2018-09-05T13:54:53.092Z,44.80
2018-09-05T13:57:20.956Z,45.10
2018-09-05T13:59:48.802Z,45.20
2018-09-05T14:02:16.591Z,45.20
2018-09-05T14:04:44.329Z,45.80
2018-09-05T14:07:12.144Z,44.50
2018-09-05T14:09:40.238Z,44.00
2018-09-05T14:12:08.022Z,44.00
2018-09-05T14:14:35.970Z,43.40
2018-09-05T14:17:03.930Z,44.00
2018-09-05T14:19:31.704Z,43.60
2018-09-05T14:21:59.474Z,43.70
2018-09-05T14:24:27.332Z,44.00
2018-09-05T14:26:55.055Z,43.50
2018-09-05T14:29:22.958Z,43.80
2018-09-05T14:31:50.702Z,44.20
2018-09-05T14:34:18.491Z,44.00
2018-09-05T14:36:46.388Z,44.00
2018-09-05T14:39:14.257Z,44.20
2018-09-05T14:41:42.115Z,44.30
2018-09-05T14:44:10.740Z,43.80
2018-09-05T14:46:38.547Z,44.00
2018-09-05T14:49:06.318Z,43.60
2018-09-05T14:51:34.082Z,44.20
2018-09-05T14:54:02.119Z,44.40
2018-09-05T14:56:29.879Z,44.10
2018-09-05T14:58:57.569Z,43.40
2018-09-05T15:01:25.530Z,43.70
2018-09-05T15:03:53.341Z,43.70
2018-09-05T15:06:21.167Z,43.90
2018-09-05T15:08:49.037Z,43.70
2018-09-05T15:11:16.857Z,44.20
2018-09-05T15:13:44.618Z,44.10
2018-09-05T15:16:12.674Z,44.40
2018-09-05T15:18:40.408Z,43.10
2018-09-05T15:21:08.567Z,43.80
2018-09-05T15:23:36.356Z,43.80
2018-09-05T15:26:04.222Z,43.70
2018-09-05T15:28:32.260Z,44.00
2018-09-05T15:31:00.063Z,44.00
2018-09-05T15:33:27.818Z,44.60
2018-09-05T15:35:55.755Z,44.70
2018-09-05T15:38:23.550Z,45.40
2018-09-05T15:40:51.344Z,45.40
2018-09-05T15:43:19.243Z,45.20
2018-09-05T15:45:47.011Z,45.40
2018-09-05T15:48:14.801Z,45.20
2018-09-05T15:50:42.740Z,45.30
2018-09-05T15:53:10.476Z,45.40
2018-09-05T15:55:38.347Z,45.60
2018-09-05T15:58:06.146Z,46.00
2018-09-05T16:00:33.857Z,46.10
2018-09-05T16:03:01.909Z,45.70
2018-09-05T16:05:29.648Z,45.80
2018-09-05T16:07:57.462Z,45.50
2018-09-05T16:10:25.234Z,45.80
2018-09-05T16:12:53.234Z,45.80
2018-09-05T16:15:21.179Z,45.60
2018-09-05T16:17:48.942Z,45.60
2018-09-05T16:20:16.714Z,45.80
2018-09-05T16:22:44.545Z,46.00
2018-09-05T16:25:12.384Z,45.80
2018-09-05T16:27:40.189Z,45.70
2018-09-05T16:30:08.037Z,45.80
2018-09-05T16:32:35.962Z,45.80
2018-09-05T16:35:03.927Z,46.10
2018-09-05T16:37:31.603Z,46.20
2018-09-05T16:39:59.519Z,46.50
2018-09-05T16:42:27.317Z,47.10
2018-09-05T16:44:55.137Z,47.00
2018-09-05T16:47:23.087Z,47.30
2018-09-05T16:49:50.787Z,48.50
2018-09-05T16:52:18.512Z,49.30
2018-09-05T16:54:46.345Z,50.20
2018-09-05T16:57:14.077Z,51.00
2018-09-05T16:59:41.813Z,51.70
2018-09-05T17:02:09.564Z,52.40
2018-09-05T17:04:37.265Z,52.60
2018-09-05T17:07:04.989Z,53.00
2018-09-05T17:09:33.263Z,53.00
2018-09-05T17:12:01.007Z,53.00
2018-09-05T17:14:28.718Z,53.40
2018-09-05T17:16:56.643Z,54.10
2018-09-05T17:19:24.461Z,54.40
2018-09-05T17:21:52.204Z,54.80
2018-09-05T17:24:20.173Z,55.00
2018-09-05T17:26:47.976Z,55.20
2018-09-05T17:29:15.706Z,55.20
2018-09-05T17:31:43.466Z,55.20
2018-09-05T17:34:11.297Z,55.30
2018-09-05T17:36:39.736Z,56.10
2018-09-05T17:39:09.579Z,55.70
2018-09-05T17:41:37.646Z,55.70
2018-09-05T17:44:05.621Z,55.90
2018-09-05T17:46:33.318Z,55.80
2018-09-05T17:49:01.305Z,55.40
2018-09-05T17:51:29.524Z,56.10
2018-09-05T17:53:57.776Z,55.80
2018-09-05T17:56:25.538Z,55.80
2018-09-05T17:58:53.261Z,55.90
2018-09-05T18:01:22.797Z,55.90
2018-09-05T18:03:50.503Z,56.00
2018-09-05T18:06:18.273Z,56.30
2018-09-05T18:08:46.229Z,56.50
2018-09-05T18:11:14.265Z,56.20
2018-09-05T18:13:42.470Z,56.30
2018-09-05T18:16:10.163Z,56.10
2018-09-05T18:18:37.958Z,56.20
2018-09-05T18:21:05.725Z,55.90
2018-09-05T18:23:33.435Z,56.20
2018-09-05T18:26:01.121Z,56.30
2018-09-05T18:28:29.346Z,56.60
2018-09-05T18:30:57.095Z,56.90
2018-09-05T18:33:24.856Z,57.70
2018-09-05T18:35:52.585Z,57.20
2018-09-05T18:38:20.404Z,56.70
2018-09-05T18:40:48.259Z,56.70
2018-09-05T18:43:15.963Z,56.90
2018-09-05T18:45:43.740Z,57.60
2018-09-05T18:48:11.450Z,57.00
2018-09-05T18:50:39.145Z,57.20
2018-09-05T18:53:10.528Z,57.30
2018-09-05T18:55:39.201Z,57.30
2018-09-05T18:58:06.980Z,57.30
2018-09-05T19:00:35.387Z,57.40
2018-09-05T19:03:03.261Z,57.00
2018-09-05T19:05:31.080Z,57.40
2018-09-05T19:07:58.907Z,57.30
2018-09-05T19:10:26.735Z,57.60
2018-09-05T19:12:55.148Z,57.80
2018-09-05T19:15:23.023Z,58.60
2018-09-05T19:17:50.885Z,58.80
2018-09-05T19:20:18.886Z,59.30
2018-09-05T19:22:47.001Z,59.00
2018-09-05T19:25:14.734Z,58.90
2018-09-05T19:27:42.509Z,58.80
2018-09-05T19:30:10.422Z,59.40
2018-09-05T19:32:38.272Z,59.50
2018-09-05T19:35:06.130Z,59.50
2018-09-05T19:37:34.455Z,59.70
2018-09-05T19:40:02.333Z,59.10
2018-09-05T19:42:30.261Z,58.80
2018-09-05T19:44:58.422Z,58.70
2018-09-05T19:47:26.205Z,59.30
2018-09-05T19:49:54.047Z,59.30
2018-09-05T19:52:21.762Z,59.80
2018-09-05T19:54:49.551Z,60.10
2018-09-05T19:57:17.302Z,59.80
2018-09-05T19:59:45.073Z,59.70
2018-09-05T20:02:12.875Z,59.80
2018-09-05T20:04:40.759Z,60.10
2018-09-05T20:07:08.563Z,59.80
2018-09-05T20:09:36.467Z,59.50
2018-09-05T20:12:04.213Z,59.80
2018-09-05T20:14:32.262Z,60.20
2018-09-05T20:17:00.246Z,59.90
2018-09-05T20:19:28.267Z,60.80
2018-09-05T20:21:56.128Z,60.60
2018-09-05T20:24:24.133Z,62.00
2018-09-05T20:26:52.155Z,61.40
2018-09-05T20:29:19.970Z,61.20
2018-09-05T20:31:47.732Z,61.30
2018-09-05T20:34:15.463Z,61.10
2018-09-05T20:36:43.301Z,61.60
2018-09-05T20:39:12.358Z,60.90
2018-09-05T20:41:40.546Z,61.20
2018-09-05T20:44:08.476Z,61.50
2018-09-05T20:46:36.319Z,61.70
2018-09-05T20:49:04.240Z,61.00
2018-09-05T20:51:32.021Z,61.20
2018-09-05T20:53:59.840Z,60.80
2018-09-05T20:56:27.569Z,61.00
2018-09-05T20:58:55.390Z,61.70
2018-09-05T21:01:23.210Z,61.60
2018-09-05T21:03:51.102Z,61.10
2018-09-05T21:06:18.893Z,61.20
2018-09-05T21:08:46.769Z,62.70
2018-09-05T21:11:14.440Z,62.80
2018-09-05T21:13:42.297Z,61.60
2018-09-05T21:16:10.130Z,61.20
2018-09-05T21:18:37.934Z,61.40
2018-09-05T21:21:06.308Z,61.10
2018-09-05T21:23:34.307Z,61.20
2018-09-05T21:26:02.851Z,60.90
2018-09-05T21:28:30.677Z,61.20
2018-09-05T21:30:58.526Z,61.30
2018-09-05T21:33:26.269Z,61.30
2018-09-05T21:35:54.332Z,61.10
2018-09-05T21:38:22.212Z,62.10
2018-09-05T21:40:50.672Z,62.30
2018-09-05T21:43:18.471Z,62.10
2018-09-05T21:45:46.329Z,61.60
2018-09-05T21:48:14.086Z,61.40
2018-09-05T21:50:41.880Z,61.20
2018-09-05T21:53:09.658Z,61.40
2018-09-05T21:55:37.411Z,62.10
2018-09-05T21:58:05.186Z,62.20
2018-09-05T22:00:33.082Z,62.80
2018-09-05T22:03:00.902Z,62.70
2018-09-05T22:05:28.695Z,61.80
2018-09-05T22:07:56.915Z,61.60
2018-09-05T22:10:25.028Z,62.40
2018-09-05T22:12:52.849Z,62.90
2018-09-05T22:15:20.576Z,63.00
2018-09-05T22:17:48.420Z,63.30
2018-09-05T22:20:16.166Z,62.70
2018-09-05T22:22:44.465Z,62.40
2018-09-05T22:25:12.749Z,62.10
2018-09-05T22:27:40.509Z,62.70
2018-09-05T22:30:08.323Z,62.90
2018-09-05T22:32:36.070Z,62.70
2018-09-05T22:35:04.126Z,62.80
2018-09-05T22:37:31.962Z,62.00
2018-09-05T22:39:59.657Z,62.20
2018-09-05T22:42:27.358Z,62.20
2018-09-05T22:45:06.510Z,62.60
2018-09-05T22:48:44.906Z,62.90
2018-09-05T22:51:35.627Z,63.10
2018-09-05T22:58:26.624Z,63.20
2018-09-05T23:03:11.828Z,63.40
2018-09-05T23:07:51.428Z,63.20
2018-09-05T23:10:30.335Z,63.10
2018-09-05T23:13:09.508Z,63.90
2018-09-05T23:15:48.694Z,64.00
2018-09-05T23:20:41.183Z,63.40
2018-09-05T23:23:20.487Z,64.00
2018-09-05T23:25:48.414Z,63.70
2018-09-05T23:28:16.215Z,63.40
2018-09-05T23:30:43.971Z,63.20
2018-09-05T23:33:11.764Z,63.50
2018-09-05T23:35:39.572Z,65.10
2018-09-05T23:38:07.321Z,64.30
2018-09-05T23:40:35.098Z,64.90
2018-09-05T23:43:02.831Z,65.80
2018-09-05T23:45:30.649Z,65.10
2018-09-05T23:47:58.398Z,64.90
2018-09-05T23:50:26.140Z,64.40
2018-09-05T23:52:53.892Z,64.30
2018-09-05T23:55:21.694Z,63.80
2018-09-05T23:57:49.466Z,64.10
